createdAt,value
2022-08-07T00:08:11.934Z,1029.6373685463323
2022-08-07T00:16:57.406Z,1029.5868529673933
2022-08-07T00:27:35.746Z,1029.4902820911152
2022-08-07T00:35:54.376Z,1029.5002649426526
2022-08-07T00:44:49.901Z,1029.4307632797509
2022-08-07T00:54:54.265Z,1029.4158945131935
2022-08-07T01:03:14.980Z,1029.3721795027088
2022-08-07T01:12:32.461Z,1029.3738511204785
2022-08-07T01:20:43.130Z,1029.4036459502752
2022-08-07T01:29:33.735Z,1029.4539657305604
2022-08-07T01:38:02.130Z,1029.4559505668842
2022-08-07T01:46:25.825Z,1029.41052916524
2022-08-07T01:56:28.996Z,1029.365800611276
2022-08-07T02:07:00.375Z,1029.21842365919
2022-08-07T02:15:46.691Z,1029.1928593244922
2022-08-07T02:24:06.445Z,1029.1538978887966
2022-08-07T02:32:38.644Z,1029.081054097946
2022-08-07T02:42:19.075Z,1029.1002571590213
2022-08-07T02:51:14.377Z,1029.1042467160657
2022-08-07T02:59:27.375Z,1029.0101634154823
2022-08-07T03:07:43.363Z,1028.9634811491758
2022-08-07T03:16:17.136Z,1028.974456083942
2022-08-07T03:24:18.585Z,1028.927257548976
2022-08-07T03:33:20.462Z,1028.9042979709404
2022-08-07T03:41:41.842Z,1028.9911572763458
2022-08-07T03:50:22.907Z,1028.9657670433976
2022-08-07T04:00:59.672Z,1029.0655323036656
2022-08-07T04:08:52.777Z,1029.2106432885712
2022-08-07T04:20:54.295Z,1029.2427411547148
2022-08-07T04:29:40.480Z,1029.2754277879062
2022-08-07T04:38:52.921Z,1029.3024100960706
2022-08-07T04:48:55.648Z,1029.4204993421286
2022-08-07T05:00:56.375Z,1029.3469485883234
2022-08-07T05:10:32.380Z,1029.4011187063916
2022-08-07T05:20:52.819Z,1029.4309712009426
2022-08-07T05:30:57.881Z,1029.4423626891314
2022-08-07T05:40:05.179Z,1029.5266822286364
2022-08-07T05:50:06.892Z,1029.5065221774225
2022-08-07T05:59:56.296Z,1029.5493059313358
2022-08-07T06:09:17.158Z,1029.5598812398964
2022-08-07T06:17:59.723Z,1029.504806853513
2022-08-07T06:29:09.847Z,1029.4582526602653
2022-08-07T06:37:43.800Z,1029.5112425978173
2022-08-07T06:48:24.652Z,1029.4771413932194
2022-08-07T07:00:44.242Z,1029.4440197192434
2022-08-07T07:10:21.290Z,1029.5247922748244
2022-08-07T07:17:26.435Z,1029.4863168721947
2022-08-07T07:30:32.847Z,1029.5088628143262
2022-08-07T07:39:12.535Z,1029.5088628143262
2022-08-07T07:50:32.073Z,1029.5088628143262
2022-08-07T07:59:03.660Z,1029.5088628143262
2022-08-07T08:09:23.863Z,1029.5088628143262
2022-08-07T08:19:10.040Z,1029.5088628143262
2022-08-07T08:29:25.361Z,1029.5088628143262
2022-08-07T08:38:47.481Z,1029.5088628143262
2022-08-07T08:47:11.329Z,1029.5088628143262
2022-08-07T08:56:14.056Z,1029.5088628143262
2022-08-07T09:04:32.666Z,1029.5088628143262
2022-08-07T09:12:53.384Z,1029.5088628143262
2022-08-07T09:25:39.986Z,1029.5088628143262
2022-08-07T09:34:59.406Z,1029.5088628143262
2022-08-07T09:46:28.561Z,1029.5088628143262
2022-08-07T09:57:49.989Z,1029.5088628143262
2022-08-07T10:07:24.758Z,1029.5088628143262
2022-08-07T10:17:20.498Z,1029.5088628143262
2022-08-07T10:26:26.326Z,1029.5088628143262
2022-08-07T10:34:52.441Z,1029.5088628143262
2022-08-07T10:44:02.242Z,1029.5088628143262
2022-08-07T10:52:56.942Z,1029.5088628143262
2022-08-07T11:01:51.230Z,1029.5088628143262
2022-08-07T11:11:03.988Z,1029.5088628143262
2022-08-07T11:20:33.928Z,1029.5088628143262
2022-08-07T11:28:43.637Z,1029.5088628143262
2022-08-07T11:37:57.666Z,1029.5088628143262
2022-08-07T11:46:39.743Z,1029.5088628143262
2022-08-07T11:56:41.397Z,1029.5088628143262
2022-08-07T12:07:53.582Z,1029.5088628143262
2022-08-07T12:16:53.588Z,1029.5088628143262
2022-08-07T12:26:46.177Z,1029.5088628143262
2022-08-07T12:35:36.222Z,1029.5088628143262
2022-08-07T12:45:11.224Z,1029.5088628143262
2022-08-07T12:55:19.648Z,1029.5088628143262
2022-08-07T13:03:22.898Z,1029.5088628143262
2022-08-07T13:14:55.225Z,1029.5088628143262
2022-08-07T13:24:00.477Z,1029.5088628143262
2022-08-07T13:34:14.981Z,1029.5088628143262
2022-08-07T13:43:34.969Z,1029.5088628143262
2022-08-07T13:55:39.831Z,1029.5088628143262
2022-08-07T14:04:57.066Z,1029.5088628143262
2022-08-07T14:13:41.010Z,1029.5088628143262
2022-08-07T14:24:46.014Z,1029.5088628143262
2022-08-07T16:14:43.379Z,1029.5088628143262
2022-08-07T16:25:25.000Z,1025.8028186641745
2022-08-07T16:38:02.816Z,1025.829361084065
2022-08-07T16:48:58.354Z,1025.8492460180914
2022-08-07T17:00:41.668Z,1025.8565856074956
2022-08-07T17:12:01.726Z,1025.849185380703
2022-08-07T17:21:18.381Z,1025.8460514166954
2022-08-07T17:30:13.769Z,1025.7983698228968
2022-08-07T17:41:30.596Z,1025.7819520805983
2022-08-07T17:50:57.125Z,1025.7758428378563
2022-08-07T18:00:54.397Z,1025.7856517828043
2022-08-07T18:10:32.916Z,1025.8301864211035
2022-08-07T18:23:42.900Z,1025.930489325374
2022-08-07T18:33:11.094Z,1025.9976361058161
2022-08-07T18:43:30.609Z,1026.0647023643494
2022-08-07T18:57:29.264Z,1026.1952001594166
2022-08-07T19:07:34.733Z,1026.2381523791203
2022-08-07T19:18:34.354Z,1026.4071220987191
2022-08-07T19:31:29.731Z,1026.4844546351062
2022-08-07T19:40:54.256Z,1026.6361394479086
2022-08-07T19:51:50.641Z,1026.71836849499
2022-08-07T20:03:34.369Z,1026.877187123448
2022-08-07T20:13:47.778Z,1026.9242384005468
2022-08-07T20:22:16.763Z,1026.9570041758031
2022-08-07T20:31:44.540Z,1026.9787904617208
2022-08-07T20:40:31.899Z,1026.9924064592024
2022-08-07T20:50:23.042Z,1026.8737541229589
2022-08-07T20:58:49.726Z,1026.9437145284073
2022-08-07T21:07:48.867Z,1026.9966850356138
2022-08-07T21:18:01.330Z,1026.993450377243
2022-08-07T21:26:06.607Z,1026.9958306085946
2022-08-07T21:35:12.219Z,1027.0031229027272
2022-08-07T21:44:28.233Z,1026.9627542895419
2022-08-07T21:53:46.682Z,1026.9676958127661
2022-08-07T22:03:16.667Z,1026.986766525649
2022-08-07T22:11:20.598Z,1027.027936014541
2022-08-07T22:20:53.697Z,1027.0104174048204
2022-08-07T22:29:47.636Z,1027.0486991573603
2022-08-07T22:38:26.059Z,1027.102510339309
2022-08-07T22:47:59.171Z,1027.1794674010387
2022-08-07T22:57:11.100Z,1027.3225482111343
2022-08-07T23:06:39.129Z,1027.317168210178
2022-08-07T23:18:02.311Z,1027.3633595070382
2022-08-07T23:27:34.598Z,1027.4180172800602
2022-08-07T23:40:06.075Z,1027.4703708813968
2022-08-07T23:48:26.855Z,1027.4526415876733
2022-08-07T23:58:06.489Z,1027.41656663002
